createdAt,value
2022-12-22T00:00:00.745Z,65.07
2022-12-22T00:01:22.438Z,65.28
2022-12-22T00:02:44.050Z,69.20
2022-12-22T00:04:05.452Z,71.75
2022-12-22T00:05:35.827Z,63.28
2022-12-22T00:06:56.862Z,70.68
2022-12-22T00:08:18.229Z,67.22
2022-12-22T00:09:39.631Z,64.30
2022-12-22T00:11:01.385Z,64.63
2022-12-22T00:12:22.713Z,67.05
2022-12-22T00:13:44.031Z,62.58
2022-12-22T00:15:05.497Z,65.30
2022-12-22T00:16:27.368Z,75.75
2022-12-22T00:17:48.775Z,67.43
2022-12-22T00:19:10.186Z,64.18
2022-12-22T00:20:39.163Z,65.75
2022-12-22T00:22:00.668Z,68.65
2022-12-22T00:23:22.215Z,67.97
2022-12-22T00:24:43.417Z,63.33
2022-12-22T00:26:05.919Z,71.90
2022-12-22T00:27:36.867Z,65.57
2022-12-22T00:29:01.166Z,64.95
2022-12-22T00:30:23.011Z,67.18
2022-12-22T00:31:45.147Z,59.42
2022-12-22T00:33:07.491Z,61.22
2022-12-22T00:34:39.273Z,70.80
2022-12-22T00:36:00.882Z,61.35
2022-12-22T00:37:22.722Z,66.28
2022-12-22T00:38:43.768Z,66.75
2022-12-22T00:41:26.355Z,64.53
2022-12-22T00:42:47.764Z,69.22
2022-12-22T00:44:08.991Z,67.68
2022-12-22T00:45:30.396Z,73.22
2022-12-22T00:46:53.300Z,62.95
2022-12-22T00:48:14.657Z,67.20
2022-12-22T00:49:35.732Z,69.50
2022-12-22T00:50:57.040Z,69.38
2022-12-22T00:52:18.481Z,62.10
2022-12-22T00:53:40.218Z,68.95
2022-12-22T00:55:01.567Z,63.75
2022-12-22T00:56:26.968Z,66.07
2022-12-22T00:57:48.570Z,66.35
2022-12-22T00:59:11.123Z,66.95
2022-12-22T01:00:37.055Z,59.85
2022-12-22T01:01:58.671Z,64.40
2022-12-22T01:03:20.140Z,64.38
2022-12-22T01:04:41.908Z,63.10
2022-12-22T01:06:03.168Z,75.15
2022-12-22T01:07:24.495Z,65.03
2022-12-22T01:08:45.852Z,64.45
2022-12-22T01:10:10.494Z,64.28
2022-12-22T01:11:31.889Z,61.10
2022-12-22T01:12:56.179Z,65.28
2022-12-22T01:14:17.721Z,60.42
2022-12-22T01:15:39.350Z,62.83
2022-12-22T01:17:00.744Z,67.47
2022-12-22T01:18:22.907Z,65.43
2022-12-22T01:19:44.434Z,65.97
2022-12-22T01:21:05.646Z,68.95
2022-12-22T01:22:30.095Z,65.30
2022-12-22T01:23:51.847Z,64.78
2022-12-22T01:25:13.152Z,67.75
2022-12-22T01:26:34.324Z,63.25
2022-12-22T01:27:55.750Z,60.58
2022-12-22T01:29:16.975Z,58.80
2022-12-22T01:30:38.300Z,67.05
2022-12-22T01:32:00.168Z,69.03
2022-12-22T01:33:21.305Z,56.78
2022-12-22T01:34:42.582Z,57.90
2022-12-22T01:36:03.498Z,67.65
2022-12-22T01:38:45.897Z,63.35
2022-12-22T01:40:07.198Z,64.32
2022-12-22T01:41:33.837Z,55.53
2022-12-22T01:42:55.748Z,62.90
2022-12-22T01:44:16.932Z,55.90
2022-12-22T01:45:52.680Z,59.55
2022-12-22T01:47:45.970Z,57.08
2022-12-22T01:49:07.146Z,59.50
2022-12-22T01:50:28.493Z,56.92
2022-12-22T01:51:49.579Z,57.03
2022-12-22T01:53:14.790Z,57.33
2022-12-22T01:54:39.160Z,59.63
2022-12-22T01:56:00.784Z,60.75
2022-12-22T01:57:22.171Z,57.35
2022-12-22T01:58:48.822Z,58.90
2022-12-22T02:00:10.485Z,56.72
2022-12-22T02:01:35.353Z,54.95
2022-12-22T02:02:57.226Z,54.38
2022-12-22T02:04:19.253Z,53.28
2022-12-22T02:05:40.613Z,56.97
2022-12-22T02:07:04.040Z,54.08
2022-12-22T02:08:33.856Z,55.58
2022-12-22T02:09:57.945Z,55.03
2022-12-22T02:11:29.374Z,52.67
2022-12-22T02:12:56.517Z,52.42
2022-12-22T02:14:30.113Z,51.60
2022-12-22T02:16:00.466Z,50.00
2022-12-22T02:17:30.866Z,46.65
2022-12-22T02:19:10.345Z,50.58
2022-12-22T02:20:49.695Z,55.25
2022-12-22T02:23:01.349Z,55.03
2022-12-22T02:25:55.116Z,55.83
2022-12-22T02:27:18.579Z,54.85
2022-12-22T02:28:40.262Z,53.38
2022-12-22T02:30:13.456Z,54.08
2022-12-22T02:31:35.029Z,54.78
2022-12-22T02:33:07.074Z,51.20
2022-12-22T02:34:33.281Z,56.50
2022-12-22T02:36:21.270Z,48.08
2022-12-22T02:38:09.243Z,47.03
2022-12-22T02:40:11.597Z,53.55
2022-12-22T02:42:02.267Z,47.42
2022-12-22T02:43:44.885Z,50.03
2022-12-22T02:45:33.980Z,49.78
2022-12-22T02:47:16.381Z,47.65
2022-12-22T02:49:13.253Z,49.95
2022-12-22T02:50:50.573Z,44.95
2022-12-22T02:52:16.853Z,44.70
2022-12-22T02:53:38.985Z,45.55
2022-12-22T02:55:00.416Z,53.47
2022-12-22T02:56:25.834Z,46.60
2022-12-22T02:57:48.454Z,46.85
2022-12-22T02:59:09.496Z,47.05
2022-12-22T03:00:31.709Z,48.95
2022-12-22T03:01:53.358Z,49.17
2022-12-22T03:03:14.741Z,39.92
2022-12-22T03:04:35.958Z,41.33
2022-12-22T03:05:57.212Z,43.05
2022-12-22T03:07:18.407Z,49.03
2022-12-22T03:08:39.800Z,40.75
2022-12-22T03:10:01.119Z,46.20
2022-12-22T03:11:22.739Z,50.45
2022-12-22T03:12:43.945Z,42.85
2022-12-22T03:14:05.200Z,47.65
2022-12-22T03:15:26.732Z,41.17
2022-12-22T03:16:48.038Z,43.45
2022-12-22T03:18:09.248Z,40.83
2022-12-22T03:19:30.431Z,47.65
2022-12-22T03:20:51.891Z,50.22
2022-12-22T03:22:12.952Z,41.05
2022-12-22T03:23:34.469Z,46.63
2022-12-22T03:24:55.680Z,36.35
2022-12-22T03:25:58.457Z,45.40
2022-12-22T03:27:01.263Z,40.28
2022-12-22T03:28:06.198Z,48.20
2022-12-22T03:29:08.948Z,37.03
2022-12-22T03:30:11.859Z,44.65
2022-12-22T03:31:14.938Z,43.22
2022-12-22T03:32:17.804Z,39.45
2022-12-22T03:33:21.004Z,41.75
2022-12-22T03:34:23.788Z,40.78
2022-12-22T03:35:26.628Z,42.92
2022-12-22T03:36:29.489Z,44.22
2022-12-22T03:37:32.204Z,43.38
2022-12-22T03:38:35.045Z,38.30
2022-12-22T03:39:37.948Z,44.67
2022-12-22T03:40:40.895Z,43.35
2022-12-22T03:42:01.920Z,47.63
2022-12-22T03:44:44.106Z,36.08
2022-12-22T03:46:05.522Z,41.63
2022-12-22T03:47:08.319Z,38.50
2022-12-22T03:48:11.109Z,39.13
2022-12-22T03:49:13.974Z,46.30
2022-12-22T03:50:16.707Z,37.67
2022-12-22T03:51:19.404Z,33.80
2022-12-22T03:52:22.120Z,39.20
2022-12-22T03:53:24.857Z,38.75
2022-12-22T03:54:27.752Z,42.83
2022-12-22T03:55:30.494Z,41.10
2022-12-22T03:56:33.581Z,40.78
2022-12-22T03:57:36.357Z,46.00
2022-12-22T03:58:39.181Z,43.00
2022-12-22T03:59:42.007Z,41.25
2022-12-22T04:00:44.828Z,38.60
2022-12-22T04:01:52.693Z,40.17
2022-12-22T04:02:58.765Z,43.95
2022-12-22T04:04:01.612Z,37.60
2022-12-22T04:05:04.733Z,44.42
2022-12-22T04:06:07.517Z,49.20
2022-12-22T04:07:10.567Z,38.67
2022-12-22T04:08:13.254Z,41.22
2022-12-22T04:09:16.266Z,39.92
2022-12-22T04:10:37.666Z,49.30
2022-12-22T04:11:59.277Z,37.67
2022-12-22T04:13:02.120Z,44.15
2022-12-22T04:14:04.948Z,42.97
2022-12-22T04:15:08.434Z,41.45
2022-12-22T04:16:11.171Z,45.22
2022-12-22T04:17:14.139Z,42.05
2022-12-22T04:18:16.912Z,38.85
2022-12-22T04:19:19.810Z,43.75
2022-12-22T04:20:24.377Z,39.30
2022-12-22T04:21:27.343Z,41.38
2022-12-22T04:22:30.393Z,41.15
2022-12-22T04:23:33.314Z,47.22
2022-12-22T04:24:36.110Z,42.28
2022-12-22T04:25:38.935Z,47.53
2022-12-22T04:26:41.855Z,37.42
2022-12-22T04:27:44.853Z,41.75
2022-12-22T04:28:47.827Z,47.38
2022-12-22T04:29:50.608Z,39.42
2022-12-22T04:30:53.331Z,41.60
2022-12-22T04:31:56.098Z,40.38
2022-12-22T04:32:59.061Z,43.47
2022-12-22T04:34:01.893Z,39.45
2022-12-22T04:35:05.528Z,44.85
2022-12-22T04:36:08.931Z,39.38
2022-12-22T04:37:17.233Z,42.10
2022-12-22T04:38:20.596Z,40.53
2022-12-22T04:39:23.366Z,36.10
2022-12-22T04:40:26.131Z,39.63
2022-12-22T04:41:28.932Z,38.92
2022-12-22T04:42:31.741Z,41.45
2022-12-22T04:43:34.672Z,42.63
2022-12-22T04:44:37.430Z,44.40
2022-12-22T04:45:40.204Z,42.85
2022-12-22T04:46:43.019Z,39.05
2022-12-22T04:47:45.835Z,38.22
2022-12-22T04:48:48.621Z,44.83
2022-12-22T04:49:52.526Z,41.67
2022-12-22T04:50:56.929Z,39.25
2022-12-22T04:51:59.740Z,41.22
2022-12-22T04:53:03.071Z,43.70
2022-12-22T04:54:05.867Z,36.50
2022-12-22T04:55:09.508Z,39.60
2022-12-22T04:56:12.252Z,41.08
2022-12-22T04:57:14.984Z,47.70
2022-12-22T04:58:17.967Z,36.53
2022-12-22T04:59:20.703Z,41.38
2022-12-22T05:00:23.529Z,40.83
2022-12-22T05:01:26.576Z,42.33
2022-12-22T05:02:29.489Z,41.15
2022-12-22T05:03:32.418Z,42.55
2022-12-22T05:04:35.247Z,43.45
2022-12-22T05:05:38.561Z,40.58
2022-12-22T05:06:41.378Z,38.30
2022-12-22T05:07:44.343Z,37.35
2022-12-22T05:08:47.198Z,38.53
2022-12-22T05:09:50.349Z,41.50
2022-12-22T05:10:53.068Z,39.40
2022-12-22T05:11:55.836Z,38.88
2022-12-22T05:12:58.876Z,40.92
2022-12-22T05:14:07.019Z,39.70
2022-12-22T05:15:10.668Z,43.85
2022-12-22T05:16:15.072Z,38.25
2022-12-22T05:17:18.390Z,39.13
2022-12-22T05:18:21.122Z,41.00
2022-12-22T05:19:29.118Z,37.15
2022-12-22T05:20:35.950Z,40.97
2022-12-22T05:21:38.713Z,38.80
2022-12-22T05:22:41.436Z,35.60
2022-12-22T05:23:44.894Z,36.35
2022-12-22T05:24:47.669Z,37.30
2022-12-22T05:25:50.471Z,35.28
2022-12-22T05:26:53.476Z,33.13
2022-12-22T05:27:56.252Z,41.08
2022-12-22T05:28:59.187Z,37.78
2022-12-22T05:30:02.231Z,31.83
2022-12-22T05:31:10.216Z,38.63
2022-12-22T05:32:13.064Z,41.28
2022-12-22T05:33:15.771Z,39.67
2022-12-22T05:34:18.591Z,36.42
2022-12-22T05:35:21.494Z,41.88
2022-12-22T05:36:24.553Z,38.67
2022-12-22T05:37:27.281Z,33.70
2022-12-22T05:38:30.451Z,33.63
2022-12-22T05:39:33.234Z,38.03
2022-12-22T05:40:36.079Z,38.03
2022-12-22T05:41:38.775Z,39.50
2022-12-22T05:42:41.596Z,36.75
2022-12-22T05:43:44.494Z,34.50
2022-12-22T05:44:47.198Z,39.38
2022-12-22T05:45:50.033Z,34.17
2022-12-22T05:46:52.975Z,37.78
2022-12-22T05:47:58.177Z,34.38
2022-12-22T05:49:00.893Z,38.15
2022-12-22T05:50:04.055Z,34.47
2022-12-22T05:51:10.460Z,38.55
2022-12-22T05:52:13.383Z,35.40
2022-12-22T05:53:16.153Z,35.70
2022-12-22T05:54:18.824Z,36.90
2022-12-22T05:55:21.496Z,34.55
2022-12-22T05:56:24.274Z,38.00
2022-12-22T05:57:27.300Z,39.85
2022-12-22T05:58:30.004Z,38.03
2022-12-22T05:59:33.160Z,36.40
2022-12-22T06:00:35.989Z,31.33
2022-12-22T06:01:38.954Z,35.28
2022-12-22T06:02:42.691Z,35.78
2022-12-22T06:03:46.055Z,31.42
2022-12-22T06:04:48.912Z,37.92
2022-12-22T06:05:51.821Z,31.75
2022-12-22T06:06:54.646Z,33.90
2022-12-22T06:07:57.454Z,32.42
2022-12-22T06:09:00.138Z,33.97
2022-12-22T06:10:11.309Z,31.30
2022-12-22T06:11:18.239Z,36.58
2022-12-22T06:12:20.963Z,42.45
2022-12-22T06:13:24.282Z,34.47
2022-12-22T06:14:27.114Z,33.38
2022-12-22T06:15:29.859Z,33.25
2022-12-22T06:16:32.695Z,35.28
2022-12-22T06:17:42.112Z,34.42
2022-12-22T06:18:46.993Z,32.83
2022-12-22T06:19:49.706Z,35.58
2022-12-22T06:20:53.598Z,33.00
2022-12-22T06:21:56.421Z,32.45
2022-12-22T06:22:59.243Z,34.75
2022-12-22T06:24:02.756Z,32.47
2022-12-22T06:25:05.880Z,34.30
2022-12-22T06:26:09.494Z,34.58
2022-12-22T06:27:12.973Z,27.20
2022-12-22T06:28:15.718Z,32.90
2022-12-22T06:29:18.461Z,33.33
2022-12-22T06:30:24.531Z,33.88
2022-12-22T06:31:30.288Z,36.95
2022-12-22T06:32:36.692Z,35.72
2022-12-22T06:33:39.610Z,36.53
2022-12-22T06:34:42.326Z,30.63
2022-12-22T06:35:45.613Z,33.53
2022-12-22T06:36:49.215Z,34.65
2022-12-22T06:37:52.082Z,41.45
2022-12-22T06:38:54.780Z,36.95
2022-12-22T06:39:57.495Z,32.67
2022-12-22T06:41:00.296Z,32.67
2022-12-22T06:42:21.768Z,35.15
2022-12-22T06:43:24.997Z,31.67
2022-12-22T06:44:28.125Z,34.22
2022-12-22T06:45:31.014Z,33.50
2022-12-22T06:46:34.242Z,32.55
2022-12-22T06:47:37.216Z,27.65
2022-12-22T06:48:39.954Z,34.88
2022-12-22T06:49:42.644Z,29.00
2022-12-22T06:50:45.594Z,32.92
2022-12-22T06:51:48.550Z,31.85
2022-12-22T06:52:51.427Z,33.75
2022-12-22T06:53:54.458Z,29.13
2022-12-22T06:54:57.500Z,29.67
2022-12-22T06:56:00.333Z,32.50
2022-12-22T06:57:03.380Z,34.15
2022-12-22T06:58:06.166Z,31.27
2022-12-22T06:59:09.124Z,29.13
2022-12-22T07:00:12.254Z,30.98
2022-12-22T07:01:15.309Z,28.40
2022-12-22T07:02:18.282Z,31.85
2022-12-22T07:03:21.372Z,30.38
2022-12-22T07:04:24.472Z,31.88
2022-12-22T07:05:27.377Z,32.58
2022-12-22T07:06:30.104Z,25.77
2022-12-22T07:07:32.796Z,25.67
2022-12-22T07:08:35.664Z,30.50
2022-12-22T07:09:38.492Z,29.27
2022-12-22T07:10:59.394Z,30.02
2022-12-22T07:13:19.380Z,27.38
2022-12-22T07:14:22.444Z,35.70
2022-12-22T07:15:25.133Z,31.33
2022-12-22T07:16:28.149Z,28.13
2022-12-22T07:17:30.913Z,27.85
2022-12-22T07:18:39.137Z,29.25
2022-12-22T07:19:41.954Z,34.67
2022-12-22T07:20:44.825Z,27.85
2022-12-22T07:21:51.467Z,33.55
2022-12-22T07:22:54.193Z,30.50
2022-12-22T07:23:57.126Z,27.25
2022-12-22T07:25:00.168Z,27.50
2022-12-22T07:26:03.751Z,22.52
2022-12-22T07:27:06.572Z,26.00
2022-12-22T07:28:11.429Z,29.38
2022-12-22T07:29:16.410Z,32.15
2022-12-22T07:30:19.323Z,24.55
2022-12-22T07:31:23.437Z,28.70
2022-12-22T07:32:26.245Z,27.88
2022-12-22T07:33:29.309Z,27.40
2022-12-22T07:34:32.001Z,25.10
2022-12-22T07:35:34.972Z,28.52
2022-12-22T07:36:37.907Z,29.15
2022-12-22T07:37:40.597Z,29.45
2022-12-22T07:38:46.089Z,30.60
2022-12-22T07:39:48.740Z,30.77
2022-12-22T07:40:52.384Z,25.50
2022-12-22T07:42:14.598Z,28.50
2022-12-22T07:43:17.389Z,29.60
2022-12-22T07:44:20.184Z,27.50
2022-12-22T07:45:23.707Z,31.20
2022-12-22T07:46:29.535Z,25.55
2022-12-22T07:47:35.543Z,25.42
2022-12-22T07:48:56.907Z,24.40
2022-12-22T07:50:18.109Z,26.42
2022-12-22T07:51:20.829Z,28.55
2022-12-22T07:52:23.564Z,25.08
2022-12-22T07:53:26.364Z,27.10
2022-12-22T07:54:29.459Z,30.52
2022-12-22T07:55:36.271Z,28.58
2022-12-22T07:56:39.632Z,29.52
2022-12-22T07:57:42.325Z,33.60
2022-12-22T07:58:45.042Z,27.65
2022-12-22T07:59:48.515Z,25.85
2022-12-22T08:00:51.210Z,27.13
2022-12-22T08:01:54.062Z,29.00
2022-12-22T08:02:57.696Z,31.83
2022-12-22T08:04:00.758Z,30.23
2022-12-22T08:05:03.828Z,37.55
2022-12-22T08:06:07.123Z,34.75
2022-12-22T08:07:10.186Z,33.88
2022-12-22T08:08:13.081Z,29.08
2022-12-22T08:09:17.443Z,26.42
2022-12-22T08:10:20.894Z,25.75
2022-12-22T08:11:23.771Z,28.48
2022-12-22T08:12:26.981Z,25.92
2022-12-22T08:13:30.498Z,28.58
2022-12-22T08:14:33.215Z,31.85
2022-12-22T08:15:38.299Z,27.75
2022-12-22T08:16:41.264Z,28.73
2022-12-22T08:17:44.139Z,29.58
2022-12-22T08:18:46.991Z,29.83
2022-12-22T08:19:49.841Z,28.40
2022-12-22T08:20:52.644Z,28.67
2022-12-22T08:21:55.401Z,27.10
2022-12-22T08:22:58.156Z,27.20
2022-12-22T08:24:00.877Z,26.23
2022-12-22T08:25:03.933Z,25.67
2022-12-22T08:26:20.389Z,25.55
2022-12-22T08:27:27.583Z,28.42
2022-12-22T08:28:31.757Z,23.52
2022-12-22T08:29:38.787Z,29.00
2022-12-22T08:30:41.910Z,26.48
2022-12-22T08:31:45.081Z,28.95
2022-12-22T08:32:49.221Z,26.80
2022-12-22T08:33:53.279Z,29.25
2022-12-22T08:34:56.088Z,28.80
2022-12-22T08:36:05.851Z,30.50
2022-12-22T08:37:13.832Z,31.40
2022-12-22T08:38:16.652Z,31.52
2022-12-22T08:39:20.479Z,27.50
2022-12-22T08:40:26.151Z,31.00
2022-12-22T08:41:48.283Z,35.10
2022-12-22T08:42:54.066Z,29.92
2022-12-22T08:43:56.818Z,38.22
2022-12-22T08:44:59.545Z,30.73
2022-12-22T08:46:02.616Z,31.83
2022-12-22T08:47:08.885Z,32.00
2022-12-22T08:48:14.348Z,31.65
2022-12-22T08:49:17.353Z,26.67
2022-12-22T08:50:20.432Z,27.40
2022-12-22T08:51:23.354Z,28.48
2022-12-22T08:52:26.320Z,26.25
2022-12-22T08:54:03.479Z,29.55
2022-12-22T08:54:51.991Z,30.05
2022-12-22T08:55:56.179Z,30.52
2022-12-22T08:56:58.883Z,30.30
2022-12-22T08:58:01.736Z,26.25
2022-12-22T08:59:07.710Z,27.23
2022-12-22T09:00:13.367Z,24.88
2022-12-22T09:01:21.123Z,27.13
2022-12-22T09:02:24.061Z,23.27
2022-12-22T09:03:27.034Z,26.95
2022-12-22T09:04:29.806Z,25.45
2022-12-22T09:05:33.693Z,27.48
2022-12-22T09:06:41.238Z,26.27
2022-12-22T09:07:47.203Z,31.05
2022-12-22T09:08:57.591Z,24.90
2022-12-22T09:10:00.452Z,24.88
2022-12-22T09:11:04.548Z,25.00
2022-12-22T09:12:07.921Z,26.70
2022-12-22T09:13:10.693Z,25.02
2022-12-22T09:14:13.683Z,24.33
2022-12-22T09:15:18.393Z,23.55
2022-12-22T09:16:22.717Z,23.80
2022-12-22T09:17:25.484Z,25.40
2022-12-22T09:18:28.315Z,21.55
2022-12-22T09:19:31.065Z,26.30
2022-12-22T09:20:33.786Z,23.60
2022-12-22T09:21:36.614Z,22.42
2022-12-22T09:22:39.391Z,25.15
2022-12-22T09:23:42.180Z,23.60
2022-12-22T09:24:45.172Z,26.17
2022-12-22T09:25:47.858Z,22.52
2022-12-22T09:26:50.624Z,26.42
2022-12-22T09:27:53.392Z,25.73
2022-12-22T09:28:56.817Z,21.92
2022-12-22T09:29:59.734Z,25.75
2022-12-22T09:31:02.687Z,20.90
2022-12-22T09:32:05.924Z,22.92
2022-12-22T09:33:08.874Z,25.15
2022-12-22T09:34:17.231Z,25.00
2022-12-22T09:35:21.063Z,22.75
2022-12-22T09:36:26.711Z,24.60
2022-12-22T09:37:29.591Z,26.85
2022-12-22T09:38:32.483Z,24.65
2022-12-22T09:39:35.216Z,22.05
2022-12-22T09:40:38.106Z,25.02
2022-12-22T09:41:51.372Z,21.95
2022-12-22T09:42:54.113Z,23.48
2022-12-22T09:44:01.905Z,21.75
2022-12-22T09:45:05.280Z,21.60
2022-12-22T09:46:37.471Z,24.92
2022-12-22T09:47:41.439Z,22.90
2022-12-22T09:48:44.169Z,24.63
2022-12-22T09:49:47.113Z,27.17
2022-12-22T09:50:49.845Z,24.98
2022-12-22T09:52:01.266Z,25.77
2022-12-22T09:53:05.301Z,26.58
2022-12-22T09:54:11.565Z,24.00
2022-12-22T09:55:26.294Z,26.65
2022-12-22T09:56:29.752Z,24.20
2022-12-22T09:57:33.195Z,26.75
2022-12-22T09:58:36.065Z,25.45
2022-12-22T09:59:38.958Z,26.48
2022-12-22T10:00:41.849Z,33.28
2022-12-22T10:02:08.595Z,26.95
2022-12-22T10:03:41.895Z,26.80
2022-12-22T10:04:59.711Z,29.52
2022-12-22T10:06:19.136Z,26.00
2022-12-22T10:07:40.285Z,29.45
2022-12-22T10:08:43.352Z,27.42
2022-12-22T10:09:51.349Z,22.80
2022-12-22T10:10:56.032Z,24.48
2022-12-22T10:12:01.668Z,24.98
2022-12-22T10:13:06.439Z,26.15
2022-12-22T10:14:11.330Z,27.98
2022-12-22T10:15:20.026Z,22.88
2022-12-22T10:16:27.808Z,26.63
2022-12-22T10:17:32.853Z,27.02
2022-12-22T10:18:35.601Z,19.58
2022-12-22T10:19:38.481Z,26.73
2022-12-22T10:20:42.719Z,19.65
2022-12-22T10:21:50.420Z,24.83
2022-12-22T10:23:02.915Z,26.90
2022-12-22T10:24:35.654Z,26.02
2022-12-22T10:26:26.309Z,25.00
2022-12-22T10:27:09.075Z,24.42
2022-12-22T10:28:19.669Z,30.02
2022-12-22T10:30:29.538Z,24.02
2022-12-22T10:31:35.085Z,21.02
2022-12-22T10:32:37.895Z,24.35
2022-12-22T10:33:46.713Z,24.55
2022-12-22T10:35:07.155Z,25.88
2022-12-22T10:36:10.195Z,24.67
2022-12-22T10:37:12.906Z,23.92
2022-12-22T10:38:22.225Z,25.75
2022-12-22T10:39:33.283Z,26.13
2022-12-22T10:40:43.489Z,27.30
2022-12-22T10:41:48.620Z,22.13
2022-12-22T10:42:55.535Z,24.40
2022-12-22T10:44:10.474Z,23.73
2022-12-22T10:45:19.409Z,24.88
2022-12-22T10:46:32.627Z,21.33
2022-12-22T10:47:36.004Z,23.58
2022-12-22T10:48:39.544Z,26.92
2022-12-22T10:49:46.230Z,21.83
2022-12-22T10:50:49.864Z,25.50
2022-12-22T10:52:09.119Z,23.02
2022-12-22T10:53:11.904Z,22.77
2022-12-22T10:54:25.455Z,25.15
2022-12-22T10:55:29.522Z,24.90
2022-12-22T10:56:33.317Z,25.13
2022-12-22T10:57:36.107Z,22.42
2022-12-22T10:59:05.436Z,25.80
2022-12-22T11:00:30.733Z,27.70
2022-12-22T11:01:37.421Z,23.83
2022-12-22T11:02:40.533Z,28.00
2022-12-22T11:03:43.626Z,23.77
2022-12-22T11:04:47.240Z,28.10
2022-12-22T11:05:50.154Z,21.40
2022-12-22T11:06:54.180Z,27.50
2022-12-22T11:08:00.799Z,27.73
2022-12-22T11:09:31.408Z,27.92
2022-12-22T11:10:32.195Z,27.65
2022-12-22T11:11:58.810Z,24.05
2022-12-22T11:13:39.044Z,24.27
2022-12-22T11:15:18.576Z,24.85
2022-12-22T11:16:50.513Z,26.40
2022-12-22T11:18:14.330Z,26.90
2022-12-22T11:19:29.127Z,27.08
2022-12-22T11:20:53.350Z,24.50
2022-12-22T11:22:14.304Z,23.80
2022-12-22T11:23:41.277Z,26.58
2022-12-22T11:24:52.686Z,24.98
2022-12-22T11:26:09.341Z,26.98
2022-12-22T11:27:21.127Z,28.13
2022-12-22T11:28:33.651Z,23.58
2022-12-22T11:29:51.366Z,25.50
2022-12-22T11:31:06.040Z,31.25
2022-12-22T11:32:23.516Z,23.77
2022-12-22T11:33:26.452Z,25.95
2022-12-22T11:34:51.123Z,22.42
2022-12-22T11:35:56.673Z,26.60
2022-12-22T11:37:23.148Z,27.02
2022-12-22T11:38:34.572Z,24.63
2022-12-22T11:40:11.913Z,26.65
2022-12-22T11:41:31.275Z,25.50
2022-12-22T11:43:11.554Z,26.77
2022-12-22T11:44:20.029Z,26.98
2022-12-22T11:45:27.756Z,29.35
2022-12-22T11:46:38.794Z,29.90
2022-12-22T11:47:47.387Z,24.95
2022-12-22T11:48:59.447Z,26.73
2022-12-22T11:50:58.746Z,27.30
2022-12-22T11:52:04.183Z,27.17
2022-12-22T11:53:35.563Z,26.20
2022-12-22T11:54:41.043Z,21.40
2022-12-22T11:55:48.809Z,25.10
2022-12-22T11:57:17.631Z,27.20
2022-12-22T11:58:49.071Z,26.52
2022-12-22T12:00:16.825Z,24.33
2022-12-22T12:01:37.067Z,29.83
2022-12-22T12:02:48.752Z,27.10
2022-12-22T12:03:57.141Z,29.40
2022-12-22T12:05:19.512Z,28.40
2022-12-22T12:06:29.657Z,29.77
2022-12-22T12:07:43.733Z,27.85
2022-12-22T12:08:59.080Z,32.10
2022-12-22T12:10:18.270Z,32.40
2022-12-22T12:11:33.363Z,28.15
2022-12-22T12:13:03.121Z,28.92
2022-12-22T12:14:34.881Z,27.02
2022-12-22T12:15:44.692Z,25.42
2022-12-22T12:17:09.027Z,26.33
2022-12-22T12:18:42.398Z,29.48
2022-12-22T12:19:55.215Z,29.65
2022-12-22T12:21:09.892Z,24.33
2022-12-22T12:22:32.478Z,28.85
2022-12-22T12:24:21.875Z,27.98
2022-12-22T12:25:40.811Z,31.25
2022-12-22T12:27:08.404Z,29.23
2022-12-22T12:28:25.056Z,34.25
2022-12-22T12:29:29.627Z,28.50
2022-12-22T12:30:40.907Z,30.02
2022-12-22T12:32:05.662Z,28.50
2022-12-22T12:33:31.611Z,28.83
2022-12-22T12:34:37.612Z,35.88
2022-12-22T12:36:24.057Z,30.58
2022-12-22T12:37:39.085Z,30.80
2022-12-22T12:39:08.405Z,31.65
2022-12-22T12:40:33.144Z,37.60
2022-12-22T12:42:13.163Z,31.67
2022-12-22T12:43:16.945Z,25.52
2022-12-22T12:44:23.925Z,32.35
2022-12-22T12:45:41.249Z,33.15
2022-12-22T12:46:53.097Z,29.10
2022-12-22T12:48:21.751Z,28.83
2022-12-22T12:49:36.917Z,30.13
2022-12-22T12:50:39.710Z,33.22
2022-12-22T12:51:48.690Z,34.83
2022-12-22T12:52:51.286Z,31.40
2022-12-22T12:54:22.982Z,30.15
2022-12-22T12:55:32.797Z,33.92
2022-12-22T12:56:56.039Z,29.08
2022-12-22T12:58:00.979Z,33.10
2022-12-22T12:59:03.843Z,29.55
2022-12-22T13:00:35.752Z,30.25
2022-12-22T13:01:57.938Z,34.15
2022-12-22T13:03:07.836Z,30.13
2022-12-22T13:04:10.911Z,33.60
2022-12-22T13:05:30.331Z,33.58
2022-12-22T13:06:51.059Z,31.15
2022-12-22T13:08:24.834Z,28.25
2022-12-22T13:10:55.116Z,26.63
2022-12-22T13:12:17.146Z,26.75
2022-12-22T13:13:23.762Z,29.58
2022-12-22T13:14:59.038Z,25.23
2022-12-22T13:16:10.473Z,28.90
2022-12-22T13:17:40.837Z,29.75
2022-12-22T13:18:49.774Z,27.63
2022-12-22T13:19:54.317Z,26.13
2022-12-22T13:22:37.700Z,27.70
2022-12-22T13:24:29.067Z,25.83
2022-12-22T13:25:42.632Z,32.08
2022-12-22T13:26:46.038Z,28.23
2022-12-22T13:27:51.318Z,25.40
2022-12-22T13:28:57.401Z,32.38
2022-12-22T13:30:00.232Z,32.97
2022-12-22T13:31:34.125Z,30.83
2022-12-22T13:32:40.874Z,25.98
2022-12-22T13:33:44.925Z,24.67
2022-12-22T13:36:20.613Z,28.50
2022-12-22T13:37:26.420Z,25.73
2022-12-22T13:38:31.633Z,30.00
2022-12-22T13:39:34.361Z,28.50
2022-12-22T13:40:44.240Z,26.23
2022-12-22T13:41:48.844Z,26.60
2022-12-22T13:42:57.102Z,27.17
2022-12-22T13:44:08.123Z,27.67
2022-12-22T13:45:21.046Z,27.13
2022-12-22T13:46:24.032Z,28.70
2022-12-22T13:47:27.809Z,27.23
2022-12-22T13:48:44.190Z,26.40
2022-12-22T13:50:08.451Z,30.15
2022-12-22T13:51:19.766Z,25.00
2022-12-22T13:52:23.509Z,27.85
2022-12-22T13:55:25.395Z,28.90
2022-12-22T13:56:39.725Z,29.85
2022-12-22T13:57:42.607Z,28.17
2022-12-22T13:58:46.026Z,30.52
2022-12-22T13:59:51.004Z,26.42
2022-12-22T14:01:10.423Z,29.23
2022-12-22T14:02:21.165Z,25.42
2022-12-22T14:03:50.333Z,28.38
2022-12-22T14:05:09.515Z,28.95
2022-12-22T14:06:31.771Z,34.42
2022-12-22T14:07:34.767Z,30.38
2022-12-22T14:08:37.545Z,31.27
2022-12-22T14:09:45.231Z,24.83
2022-12-22T14:10:48.938Z,27.70
2022-12-22T14:12:13.303Z,31.05
2022-12-22T14:13:18.875Z,30.42
2022-12-22T14:14:28.257Z,30.90
2022-12-22T14:15:31.243Z,30.40
2022-12-22T14:16:34.195Z,30.23
2022-12-22T14:17:38.525Z,28.38
2022-12-22T14:18:41.552Z,29.65
2022-12-22T14:19:44.256Z,29.40
2022-12-22T14:20:47.603Z,29.08
2022-12-22T14:22:14.534Z,32.28
2022-12-22T14:23:21.404Z,27.40
2022-12-22T14:24:25.825Z,33.20
2022-12-22T14:25:34.849Z,32.00
2022-12-22T14:26:38.223Z,27.05
2022-12-22T14:27:44.564Z,25.45
2022-12-22T14:28:53.246Z,30.15
2022-12-22T14:29:56.679Z,29.20
2022-12-22T14:31:00.944Z,30.20
2022-12-22T14:32:04.297Z,31.20
2022-12-22T14:33:28.283Z,31.05
2022-12-22T14:34:33.100Z,28.50
2022-12-22T14:35:35.917Z,28.23
2022-12-22T14:36:41.588Z,30.17
2022-12-22T14:37:44.370Z,32.85
2022-12-22T14:38:49.519Z,31.35
2022-12-22T14:39:56.619Z,26.25
2022-12-22T14:40:59.347Z,28.23
2022-12-22T14:42:03.747Z,30.45
2022-12-22T14:43:16.696Z,30.27
2022-12-22T14:44:22.556Z,28.63
2022-12-22T14:45:25.554Z,27.75
2022-12-22T14:46:32.286Z,29.05
2022-12-22T14:47:37.894Z,27.80
2022-12-22T14:48:45.979Z,29.52
2022-12-22T14:49:48.748Z,31.13
2022-12-22T14:50:52.483Z,33.25
2022-12-22T14:52:00.998Z,33.35
2022-12-22T14:53:05.143Z,29.17
2022-12-22T14:54:22.081Z,29.98
2022-12-22T14:55:38.245Z,26.92
2022-12-22T14:56:48.110Z,31.65
2022-12-22T14:58:09.207Z,27.17
2022-12-22T14:59:41.450Z,31.20
2022-12-22T15:00:49.057Z,28.05
2022-12-22T15:02:22.675Z,26.88
2022-12-22T15:03:25.617Z,34.25
2022-12-22T15:04:29.288Z,27.50
2022-12-22T15:05:39.244Z,31.58
2022-12-22T15:06:43.874Z,19.42
2022-12-22T15:09:14.867Z,27.35
2022-12-22T15:10:18.719Z,34.63
2022-12-22T15:11:24.453Z,29.83
2022-12-22T15:12:27.380Z,33.80
2022-12-22T15:13:30.480Z,28.98
2022-12-22T15:14:38.842Z,31.00
2022-12-22T15:15:41.939Z,37.10
2022-12-22T15:16:45.686Z,32.90
2022-12-22T15:17:51.314Z,32.85
2022-12-22T15:18:54.360Z,31.52
2022-12-22T15:19:59.902Z,32.13
2022-12-22T15:21:02.888Z,29.83
2022-12-22T15:22:08.120Z,28.25
2022-12-22T15:23:14.214Z,33.33
2022-12-22T15:24:18.273Z,32.00
2022-12-22T15:25:24.853Z,30.77
2022-12-22T15:26:28.926Z,32.08
2022-12-22T15:27:34.550Z,31.98
2022-12-22T15:28:37.544Z,32.35
2022-12-22T15:29:40.403Z,27.17